sensor_id;sensor_type;location;lat;lon;timestamp;P1;durP1;ratioP1;P2;durP2;ratioP2
55641;SDS011;41509;53.108;6.100;2024-03-08T00:00:08;27.02;;;12.10;;
55641;SDS011;41509;53.108;6.100;2024-03-08T00:02:37;25.33;;;11.68;;
55641;SDS011;41509;53.108;6.100;2024-03-08T00:05:04;26.05;;;11.63;;
55641;SDS011;41509;53.108;6.100;2024-03-08T00:07:30;30.48;;;11.18;;
55641;SDS011;41509;53.108;6.100;2024-03-08T00:09:58;27.10;;;11.98;;
55641;SDS011;41509;53.108;6.100;2024-03-08T00:12:26;24.57;;;12.63;;
55641;SDS011;41509;53.108;6.100;2024-03-08T00:14:53;25.02;;;11.35;;
55641;SDS011;41509;53.108;6.100;2024-03-08T00:17:19;29.95;;;11.32;;
55641;SDS011;41509;53.108;6.100;2024-03-08T00:19:47;25.27;;;11.52;;
55641;SDS011;41509;53.108;6.100;2024-03-08T00:22:16;28.20;;;10.40;;
55641;SDS011;41509;53.108;6.100;2024-03-08T00:24:43;31.48;;;12.15;;
55641;SDS011;41509;53.108;6.100;2024-03-08T00:27:08;26.50;;;11.93;;
55641;SDS011;41509;53.108;6.100;2024-03-08T00:29:47;26.45;;;12.73;;
55641;SDS011;41509;53.108;6.100;2024-03-08T00:32:12;25.40;;;11.67;;
55641;SDS011;41509;53.108;6.100;2024-03-08T00:34:41;24.67;;;11.53;;
55641;SDS011;41509;53.108;6.100;2024-03-08T00:37:06;24.70;;;11.25;;
55641;SDS011;41509;53.108;6.100;2024-03-08T00:39:33;22.02;;;10.60;;
55641;SDS011;41509;53.108;6.100;2024-03-08T00:41:58;22.97;;;11.10;;
55641;SDS011;41509;53.108;6.100;2024-03-08T00:44:27;27.42;;;12.38;;
55641;SDS011;41509;53.108;6.100;2024-03-08T00:46:52;21.93;;;10.60;;
55641;SDS011;41509;53.108;6.100;2024-03-08T00:49:26;24.20;;;11.87;;
55641;SDS011;41509;53.108;6.100;2024-03-08T00:51:52;24.65;;;11.80;;
55641;SDS011;41509;53.108;6.100;2024-03-08T00:54:17;28.20;;;12.30;;
55641;SDS011;41509;53.108;6.100;2024-03-08T00:56:43;24.73;;;10.97;;
55641;SDS011;41509;53.108;6.100;2024-03-08T00:59:08;28.97;;;12.47;;
55641;SDS011;41509;53.108;6.100;2024-03-08T01:01:34;30.50;;;11.93;;
55641;SDS011;41509;53.108;6.100;2024-03-08T01:04:00;31.00;;;12.13;;
55641;SDS011;41509;53.108;6.100;2024-03-08T01:06:25;27.60;;;12.57;;
55641;SDS011;41509;53.108;6.100;2024-03-08T01:08:52;29.92;;;13.60;;
55641;SDS011;41509;53.108;6.100;2024-03-08T01:11:20;28.77;;;13.33;;
55641;SDS011;41509;53.108;6.100;2024-03-08T01:13:49;26.65;;;12.05;;
55641;SDS011;41509;53.108;6.100;2024-03-08T01:16:14;25.90;;;12.30;;
55641;SDS011;41509;53.108;6.100;2024-03-08T01:18:42;29.35;;;12.68;;
55641;SDS011;41509;53.108;6.100;2024-03-08T01:21:08;31.52;;;12.90;;
55641;SDS011;41509;53.108;6.100;2024-03-08T01:23:33;28.63;;;12.67;;
55641;SDS011;41509;53.108;6.100;2024-03-08T01:26:00;32.03;;;12.85;;
55641;SDS011;41509;53.108;6.100;2024-03-08T01:28:29;25.35;;;12.05;;
55641;SDS011;41509;53.108;6.100;2024-03-08T01:30:55;33.20;;;13.70;;
55641;SDS011;41509;53.108;6.100;2024-03-08T01:33:24;34.27;;;13.53;;
55641;SDS011;41509;53.108;6.100;2024-03-08T01:35:54;34.42;;;13.85;;
55641;SDS011;41509;53.108;6.100;2024-03-08T01:38:20;32.75;;;13.20;;
55641;SDS011;41509;53.108;6.100;2024-03-08T01:40:51;32.78;;;12.43;;
55641;SDS011;41509;53.108;6.100;2024-03-08T01:45:46;33.00;;;13.77;;
55641;SDS011;41509;53.108;6.100;2024-03-08T01:48:12;31.90;;;14.50;;
55641;SDS011;41509;53.108;6.100;2024-03-08T01:50:39;31.73;;;13.48;;
55641;SDS011;41509;53.108;6.100;2024-03-08T01:53:06;30.17;;;13.10;;
55641;SDS011;41509;53.108;6.100;2024-03-08T01:55:35;31.10;;;13.88;;
55641;SDS011;41509;53.108;6.100;2024-03-08T01:58:02;28.20;;;12.57;;
55641;SDS011;41509;53.108;6.100;2024-03-08T02:00:29;26.48;;;12.77;;
55641;SDS011;41509;53.108;6.100;2024-03-08T02:02:59;36.50;;;14.45;;
55641;SDS011;41509;53.108;6.100;2024-03-08T02:05:28;35.63;;;14.15;;
55641;SDS011;41509;53.108;6.100;2024-03-08T02:07:54;31.55;;;14.02;;
55641;SDS011;41509;53.108;6.100;2024-03-08T02:10:20;27.85;;;13.57;;
55641;SDS011;41509;53.108;6.100;2024-03-08T02:12:47;39.80;;;14.10;;
55641;SDS011;41509;53.108;6.100;2024-03-08T02:15:13;34.13;;;14.88;;
55641;SDS011;41509;53.108;6.100;2024-03-08T02:17:40;35.67;;;14.60;;
55641;SDS011;41509;53.108;6.100;2024-03-08T02:20:06;29.73;;;14.00;;
55641;SDS011;41509;53.108;6.100;2024-03-08T02:22:34;31.40;;;14.38;;
55641;SDS011;41509;53.108;6.100;2024-03-08T02:24:59;32.93;;;13.97;;
55641;SDS011;41509;53.108;6.100;2024-03-08T02:27:27;33.05;;;14.48;;
55641;SDS011;41509;53.108;6.100;2024-03-08T02:29:55;34.65;;;15.50;;
55641;SDS011;41509;53.108;6.100;2024-03-08T02:34:47;34.45;;;14.73;;
55641;SDS011;41509;53.108;6.100;2024-03-08T02:37:13;39.40;;;14.00;;
55641;SDS011;41509;53.108;6.100;2024-03-08T02:39:42;33.28;;;14.07;;
55641;SDS011;41509;53.108;6.100;2024-03-08T02:42:08;31.40;;;14.27;;
55641;SDS011;41509;53.108;6.100;2024-03-08T02:44:34;34.40;;;13.70;;
55641;SDS011;41509;53.108;6.100;2024-03-08T02:46:59;35.90;;;14.40;;
55641;SDS011;41509;53.108;6.100;2024-03-08T02:49:26;30.25;;;13.75;;
55641;SDS011;41509;53.108;6.100;2024-03-08T02:51:54;38.22;;;14.88;;
55641;SDS011;41509;53.108;6.100;2024-03-08T02:54:22;33.72;;;14.77;;
55641;SDS011;41509;53.108;6.100;2024-03-08T02:56:47;33.10;;;14.83;;
55641;SDS011;41509;53.108;6.100;2024-03-08T02:59:15;36.97;;;15.27;;
55641;SDS011;41509;53.108;6.100;2024-03-08T03:01:43;37.22;;;14.40;;
55641;SDS011;41509;53.108;6.100;2024-03-08T03:04:09;36.25;;;14.80;;
55641;SDS011;41509;53.108;6.100;2024-03-08T03:06:34;37.70;;;15.47;;
55641;SDS011;41509;53.108;6.100;2024-03-08T03:09:00;33.38;;;13.55;;
55641;SDS011;41509;53.108;6.100;2024-03-08T03:11:26;35.05;;;14.90;;
55641;SDS011;41509;53.108;6.100;2024-03-08T03:13:52;32.90;;;14.07;;
55641;SDS011;41509;53.108;6.100;2024-03-08T03:16:21;37.17;;;14.43;;
55641;SDS011;41509;53.108;6.100;2024-03-08T03:18:46;35.23;;;15.37;;
55641;SDS011;41509;53.108;6.100;2024-03-08T03:21:12;34.77;;;15.50;;
55641;SDS011;41509;53.108;6.100;2024-03-08T03:23:41;35.38;;;14.68;;
55641;SDS011;41509;53.108;6.100;2024-03-08T03:26:08;35.95;;;14.45;;
55641;SDS011;41509;53.108;6.100;2024-03-08T03:28:37;31.52;;;14.50;;
55641;SDS011;41509;53.108;6.100;2024-03-08T03:31:06;35.25;;;15.13;;
55641;SDS011;41509;53.108;6.100;2024-03-08T03:33:32;38.53;;;14.07;;
55641;SDS011;41509;53.108;6.100;2024-03-08T03:35:59;31.02;;;14.50;;
55641;SDS011;41509;53.108;6.100;2024-03-08T03:40:53;37.42;;;14.23;;
55641;SDS011;41509;53.108;6.100;2024-03-08T03:43:22;28.90;;;13.50;;
55641;SDS011;41509;53.108;6.100;2024-03-08T03:45:48;30.88;;;14.98;;
55641;SDS011;41509;53.108;6.100;2024-03-08T03:48:14;33.60;;;14.97;;
55641;SDS011;41509;53.108;6.100;2024-03-08T03:50:39;32.33;;;14.90;;
55641;SDS011;41509;53.108;6.100;2024-03-08T03:53:05;31.63;;;12.97;;
55641;SDS011;41509;53.108;6.100;2024-03-08T03:55:33;38.17;;;13.90;;
55641;SDS011;41509;53.108;6.100;2024-03-08T03:57:59;31.40;;;14.27;;
55641;SDS011;41509;53.108;6.100;2024-03-08T04:00:26;42.80;;;16.05;;
55641;SDS011;41509;53.108;6.100;2024-03-08T04:02:52;31.65;;;14.25;;
55641;SDS011;41509;53.108;6.100;2024-03-08T04:05:17;38.57;;;15.33;;
55641;SDS011;41509;53.108;6.100;2024-03-08T04:07:43;34.30;;;15.17;;
55641;SDS011;41509;53.108;6.100;2024-03-08T04:10:10;35.67;;;15.05;;
55641;SDS011;41509;53.108;6.100;2024-03-08T04:12:37;33.45;;;14.27;;
55641;SDS011;41509;53.108;6.100;2024-03-08T04:15:06;32.30;;;14.35;;
55641;SDS011;41509;53.108;6.100;2024-03-08T04:17:33;36.05;;;14.93;;
55641;SDS011;41509;53.108;6.100;2024-03-08T04:20:02;32.38;;;14.98;;
55641;SDS011;41509;53.108;6.100;2024-03-08T04:22:38;30.55;;;14.43;;
55641;SDS011;41509;53.108;6.100;2024-03-08T04:25:06;39.60;;;15.32;;
55641;SDS011;41509;53.108;6.100;2024-03-08T04:27:35;37.38;;;14.45;;
55641;SDS011;41509;53.108;6.100;2024-03-08T04:30:01;32.13;;;14.07;;
55641;SDS011;41509;53.108;6.100;2024-03-08T04:32:27;32.22;;;13.07;;
55641;SDS011;41509;53.108;6.100;2024-03-08T04:34:54;38.90;;;15.38;;
55641;SDS011;41509;53.108;6.100;2024-03-08T04:37:20;33.00;;;14.90;;
55641;SDS011;41509;53.108;6.100;2024-03-08T04:39:50;30.65;;;13.50;;
55641;SDS011;41509;53.108;6.100;2024-03-08T04:42:17;34.35;;;14.40;;
55641;SDS011;41509;53.108;6.100;2024-03-08T04:44:43;33.93;;;14.80;;
55641;SDS011;41509;53.108;6.100;2024-03-08T04:47:11;33.10;;;14.38;;
55641;SDS011;41509;53.108;6.100;2024-03-08T04:49:37;32.10;;;14.03;;
55641;SDS011;41509;53.108;6.100;2024-03-08T04:52:03;31.63;;;15.07;;
55641;SDS011;41509;53.108;6.100;2024-03-08T04:54:32;33.25;;;13.93;;
55641;SDS011;41509;53.108;6.100;2024-03-08T04:56:58;35.40;;;14.55;;
55641;SDS011;41509;53.108;6.100;2024-03-08T04:59:27;31.67;;;14.73;;
55641;SDS011;41509;53.108;6.100;2024-03-08T05:01:53;37.28;;;13.63;;
55641;SDS011;41509;53.108;6.100;2024-03-08T05:04:19;30.83;;;13.18;;
55641;SDS011;41509;53.108;6.100;2024-03-08T05:06:44;29.27;;;13.93;;
55641;SDS011;41509;53.108;6.100;2024-03-08T05:09:15;35.10;;;13.88;;
55641;SDS011;41509;53.108;6.100;2024-03-08T05:11:44;28.85;;;13.13;;
55641;SDS011;41509;53.108;6.100;2024-03-08T05:14:11;35.05;;;14.20;;
55641;SDS011;41509;53.108;6.100;2024-03-08T05:16:41;37.53;;;14.10;;
55641;SDS011;41509;53.108;6.100;2024-03-08T05:19:07;36.10;;;14.38;;
55641;SDS011;41509;53.108;6.100;2024-03-08T05:21:33;34.23;;;12.37;;
55641;SDS011;41509;53.108;6.100;2024-03-08T05:23:59;31.60;;;13.33;;
55641;SDS011;41509;53.108;6.100;2024-03-08T05:26:27;28.27;;;14.23;;
55641;SDS011;41509;53.108;6.100;2024-03-08T05:28:55;31.40;;;14.15;;
55641;SDS011;41509;53.108;6.100;2024-03-08T05:31:21;28.50;;;14.05;;
55641;SDS011;41509;53.108;6.100;2024-03-08T05:33:48;28.52;;;13.18;;
55641;SDS011;41509;53.108;6.100;2024-03-08T05:38:42;29.08;;;12.02;;
55641;SDS011;41509;53.108;6.100;2024-03-08T05:41:10;28.80;;;12.20;;
55641;SDS011;41509;53.108;6.100;2024-03-08T05:43:40;27.38;;;12.75;;
55641;SDS011;41509;53.108;6.100;2024-03-08T05:46:06;28.52;;;12.82;;
55641;SDS011;41509;53.108;6.100;2024-03-08T05:48:35;30.48;;;13.77;;
55641;SDS011;41509;53.108;6.100;2024-03-08T05:51:01;28.97;;;13.47;;
55641;SDS011;41509;53.108;6.100;2024-03-08T05:53:27;30.70;;;13.35;;
55641;SDS011;41509;53.108;6.100;2024-03-08T05:55:55;31.83;;;14.57;;
55641;SDS011;41509;53.108;6.100;2024-03-08T05:58:27;31.05;;;14.07;;
55641;SDS011;41509;53.108;6.100;2024-03-08T06:00:55;33.50;;;13.85;;
55641;SDS011;41509;53.108;6.100;2024-03-08T06:03:21;28.90;;;12.90;;
55641;SDS011;41509;53.108;6.100;2024-03-08T06:05:47;31.30;;;13.90;;
55641;SDS011;41509;53.108;6.100;2024-03-08T06:08:14;33.03;;;13.48;;
55641;SDS011;41509;53.108;6.100;2024-03-08T06:10:43;29.77;;;13.32;;
55641;SDS011;41509;53.108;6.100;2024-03-08T06:13:09;39.50;;;14.33;;
55641;SDS011;41509;53.108;6.100;2024-03-08T06:15:37;30.33;;;13.77;;
55641;SDS011;41509;53.108;6.100;2024-03-08T06:18:02;35.53;;;13.10;;
55641;SDS011;41509;53.108;6.100;2024-03-08T06:20:30;25.95;;;11.60;;
55641;SDS011;41509;53.108;6.100;2024-03-08T06:22:56;30.17;;;13.03;;
55641;SDS011;41509;53.108;6.100;2024-03-08T06:25:22;32.70;;;14.37;;
55641;SDS011;41509;53.108;6.100;2024-03-08T06:27:47;28.93;;;12.73;;
55641;SDS011;41509;53.108;6.100;2024-03-08T06:30:16;27.15;;;12.50;;
55641;SDS011;41509;53.108;6.100;2024-03-08T06:32:42;29.83;;;12.87;;
55641;SDS011;41509;53.108;6.100;2024-03-08T06:35:08;32.80;;;14.20;;
55641;SDS011;41509;53.108;6.100;2024-03-08T06:37:35;35.65;;;13.57;;
55641;SDS011;41509;53.108;6.100;2024-03-08T06:40:01;33.73;;;14.40;;
55641;SDS011;41509;53.108;6.100;2024-03-08T06:42:33;31.27;;;14.15;;
55641;SDS011;41509;53.108;6.100;2024-03-08T06:45:00;29.00;;;13.80;;
55641;SDS011;41509;53.108;6.100;2024-03-08T06:47:30;28.92;;;12.73;;
55641;SDS011;41509;53.108;6.100;2024-03-08T06:49:56;31.73;;;12.68;;
55641;SDS011;41509;53.108;6.100;2024-03-08T06:52:22;31.17;;;13.13;;
55641;SDS011;41509;53.108;6.100;2024-03-08T06:54:48;28.33;;;12.67;;
55641;SDS011;41509;53.108;6.100;2024-03-08T06:57:14;34.88;;;14.60;;
55641;SDS011;41509;53.108;6.100;2024-03-08T06:59:41;27.05;;;12.57;;
55641;SDS011;41509;53.108;6.100;2024-03-08T07:02:07;29.42;;;14.63;;
55641;SDS011;41509;53.108;6.100;2024-03-08T07:04:39;31.50;;;13.30;;
55641;SDS011;41509;53.108;6.100;2024-03-08T07:07:04;31.50;;;13.67;;
55641;SDS011;41509;53.108;6.100;2024-03-08T07:09:33;32.05;;;13.48;;
55641;SDS011;41509;53.108;6.100;2024-03-08T07:12:01;26.25;;;12.38;;
55641;SDS011;41509;53.108;6.100;2024-03-08T07:14:27;37.20;;;14.63;;
55641;SDS011;41509;53.108;6.100;2024-03-08T07:16:52;30.00;;;12.97;;
55641;SDS011;41509;53.108;6.100;2024-03-08T07:19:18;30.47;;;14.10;;
55641;SDS011;41509;53.108;6.100;2024-03-08T07:21:44;26.83;;;13.32;;
55641;SDS011;41509;53.108;6.100;2024-03-08T07:24:12;31.90;;;13.90;;
55641;SDS011;41509;53.108;6.100;2024-03-08T07:27:03;27.00;;;12.65;;
55641;SDS011;41509;53.108;6.100;2024-03-08T07:29:30;31.45;;;13.48;;
55641;SDS011;41509;53.108;6.100;2024-03-08T07:31:56;27.05;;;11.93;;
55641;SDS011;41509;53.108;6.100;2024-03-08T07:34:27;32.45;;;13.05;;
55641;SDS011;41509;53.108;6.100;2024-03-08T07:36:57;28.67;;;13.63;;
55641;SDS011;41509;53.108;6.100;2024-03-08T07:39:26;26.23;;;12.80;;
55641;SDS011;41509;53.108;6.100;2024-03-08T07:41:51;35.70;;;13.87;;
55641;SDS011;41509;53.108;6.100;2024-03-08T07:44:20;28.27;;;12.80;;
55641;SDS011;41509;53.108;6.100;2024-03-08T07:46:46;30.47;;;13.57;;
55641;SDS011;41509;53.108;6.100;2024-03-08T07:49:17;26.15;;;12.95;;
55641;SDS011;41509;53.108;6.100;2024-03-08T07:51:45;28.90;;;13.02;;
55641;SDS011;41509;53.108;6.100;2024-03-08T07:54:11;28.97;;;13.60;;
55641;SDS011;41509;53.108;6.100;2024-03-08T07:56:36;32.37;;;13.93;;
55641;SDS011;41509;53.108;6.100;2024-03-08T07:59:02;30.37;;;13.23;;
55641;SDS011;41509;53.108;6.100;2024-03-08T08:01:31;28.73;;;13.10;;
55641;SDS011;41509;53.108;6.100;2024-03-08T08:03:58;32.65;;;13.73;;
55641;SDS011;41509;53.108;6.100;2024-03-08T08:06:24;29.33;;;12.97;;
55641;SDS011;41509;53.108;6.100;2024-03-08T08:08:50;31.98;;;13.07;;
55641;SDS011;41509;53.108;6.100;2024-03-08T08:11:16;32.10;;;13.38;;
55641;SDS011;41509;53.108;6.100;2024-03-08T08:13:43;28.85;;;14.00;;
55641;SDS011;41509;53.108;6.100;2024-03-08T08:16:09;29.90;;;13.85;;
55641;SDS011;41509;53.108;6.100;2024-03-08T08:21:01;31.75;;;13.13;;
55641;SDS011;41509;53.108;6.100;2024-03-08T08:23:27;28.95;;;12.45;;
55641;SDS011;41509;53.108;6.100;2024-03-08T08:25:54;28.08;;;12.35;;
55641;SDS011;41509;53.108;6.100;2024-03-08T08:28:20;31.70;;;14.67;;
55641;SDS011;41509;53.108;6.100;2024-03-08T08:30:46;32.77;;;13.83;;
55641;SDS011;41509;53.108;6.100;2024-03-08T08:33:15;32.70;;;13.73;;
55641;SDS011;41509;53.108;6.100;2024-03-08T08:35:41;32.07;;;15.33;;
55641;SDS011;41509;53.108;6.100;2024-03-08T08:40:34;28.67;;;13.30;;
55641;SDS011;41509;53.108;6.100;2024-03-08T08:43:01;26.85;;;12.60;;
55641;SDS011;41509;53.108;6.100;2024-03-08T08:45:29;30.77;;;13.65;;
55641;SDS011;41509;53.108;6.100;2024-03-08T08:47:56;33.05;;;13.90;;
55641;SDS011;41509;53.108;6.100;2024-03-08T08:50:24;31.80;;;14.93;;
55641;SDS011;41509;53.108;6.100;2024-03-08T08:52:51;29.17;;;15.00;;
55641;SDS011;41509;53.108;6.100;2024-03-08T08:55:20;32.95;;;13.80;;
55641;SDS011;41509;53.108;6.100;2024-03-08T08:57:49;31.58;;;13.80;;
55641;SDS011;41509;53.108;6.100;2024-03-08T09:00:20;31.77;;;13.93;;
55641;SDS011;41509;53.108;6.100;2024-03-08T09:05:13;28.60;;;14.20;;
55641;SDS011;41509;53.108;6.100;2024-03-08T09:07:42;31.00;;;13.73;;
55641;SDS011;41509;53.108;6.100;2024-03-08T09:10:09;28.60;;;13.75;;
55641;SDS011;41509;53.108;6.100;2024-03-08T09:12:37;27.70;;;13.77;;
55641;SDS011;41509;53.108;6.100;2024-03-08T09:15:05;30.75;;;15.30;;
55641;SDS011;41509;53.108;6.100;2024-03-08T09:17:36;27.00;;;13.00;;
55641;SDS011;41509;53.108;6.100;2024-03-08T09:20:05;27.67;;;13.45;;
55641;SDS011;41509;53.108;6.100;2024-03-08T09:22:34;32.53;;;14.57;;
55641;SDS011;41509;53.108;6.100;2024-03-08T09:25:00;26.17;;;13.23;;
55641;SDS011;41509;53.108;6.100;2024-03-08T09:27:26;30.63;;;15.00;;
55641;SDS011;41509;53.108;6.100;2024-03-08T09:29:52;30.75;;;14.63;;
55641;SDS011;41509;53.108;6.100;2024-03-08T09:32:18;31.53;;;14.43;;
55641;SDS011;41509;53.108;6.100;2024-03-08T09:34:43;28.77;;;13.37;;
55641;SDS011;41509;53.108;6.100;2024-03-08T09:37:09;26.07;;;13.30;;
55641;SDS011;41509;53.108;6.100;2024-03-08T09:39:35;35.87;;;14.60;;
55641;SDS011;41509;53.108;6.100;2024-03-08T09:42:01;25.63;;;12.93;;
55641;SDS011;41509;53.108;6.100;2024-03-08T09:44:27;30.52;;;12.88;;
55641;SDS011;41509;53.108;6.100;2024-03-08T09:49:19;27.33;;;13.32;;
55641;SDS011;41509;53.108;6.100;2024-03-08T09:51:45;34.20;;;14.37;;
55641;SDS011;41509;53.108;6.100;2024-03-08T09:56:39;27.25;;;13.40;;
55641;SDS011;41509;53.108;6.100;2024-03-08T09:59:06;28.30;;;14.25;;
55641;SDS011;41509;53.108;6.100;2024-03-08T10:01:58;29.63;;;13.63;;
55641;SDS011;41509;53.108;6.100;2024-03-08T10:04:24;27.48;;;12.60;;
55641;SDS011;41509;53.108;6.100;2024-03-08T10:06:53;25.70;;;12.95;;
55641;SDS011;41509;53.108;6.100;2024-03-08T10:09:20;27.83;;;13.70;;
55641;SDS011;41509;53.108;6.100;2024-03-08T10:11:49;28.95;;;13.00;;
55641;SDS011;41509;53.108;6.100;2024-03-08T10:14:15;30.73;;;12.80;;
55641;SDS011;41509;53.108;6.100;2024-03-08T10:16:41;28.00;;;12.88;;
55641;SDS011;41509;53.108;6.100;2024-03-08T10:19:07;28.40;;;13.77;;
55641;SDS011;41509;53.108;6.100;2024-03-08T10:21:33;26.60;;;12.93;;
55641;SDS011;41509;53.108;6.100;2024-03-08T10:23:58;32.00;;;14.67;;
55641;SDS011;41509;53.108;6.100;2024-03-08T10:26:24;28.97;;;13.57;;
55641;SDS011;41509;53.108;6.100;2024-03-08T10:28:53;27.97;;;13.73;;
55641;SDS011;41509;53.108;6.100;2024-03-08T10:31:19;27.60;;;13.70;;
55641;SDS011;41509;53.108;6.100;2024-03-08T10:33:48;26.73;;;14.52;;
55641;SDS011;41509;53.108;6.100;2024-03-08T10:36:14;28.30;;;14.38;;
55641;SDS011;41509;53.108;6.100;2024-03-08T10:38:41;26.23;;;13.80;;
55641;SDS011;41509;53.108;6.100;2024-03-08T10:41:08;27.95;;;14.07;;
55641;SDS011;41509;53.108;6.100;2024-03-08T10:49:20;29.13;;;14.40;;
55641;SDS011;41509;53.108;6.100;2024-03-08T10:51:56;26.00;;;13.43;;
55641;SDS011;41509;53.108;6.100;2024-03-08T10:54:24;24.23;;;13.70;;
55641;SDS011;41509;53.108;6.100;2024-03-08T10:56:51;28.77;;;14.82;;
55641;SDS011;41509;53.108;6.100;2024-03-08T10:59:17;26.75;;;13.48;;
55641;SDS011;41509;53.108;6.100;2024-03-08T11:01:45;27.98;;;13.90;;
55641;SDS011;41509;53.108;6.100;2024-03-08T11:04:11;27.50;;;14.18;;
55641;SDS011;41509;53.108;6.100;2024-03-08T11:09:05;27.03;;;14.37;;
55641;SDS011;41509;53.108;6.100;2024-03-08T11:11:42;28.15;;;14.73;;
55641;SDS011;41509;53.108;6.100;2024-03-08T11:14:42;24.43;;;13.73;;
55641;SDS011;41509;53.108;6.100;2024-03-08T11:17:09;26.33;;;14.05;;
55641;SDS011;41509;53.108;6.100;2024-03-08T11:19:35;26.03;;;13.93;;
55641;SDS011;41509;53.108;6.100;2024-03-08T11:22:02;30.45;;;14.90;;
55641;SDS011;41509;53.108;6.100;2024-03-08T11:24:36;24.58;;;13.57;;
55641;SDS011;41509;53.108;6.100;2024-03-08T11:27:05;29.52;;;14.90;;
55641;SDS011;41509;53.108;6.100;2024-03-08T11:34:36;25.02;;;13.40;;
55641;SDS011;41509;53.108;6.100;2024-03-08T11:37:06;32.28;;;15.32;;
55641;SDS011;41509;53.108;6.100;2024-03-08T11:42:17;25.05;;;13.63;;
55641;SDS011;41509;53.108;6.100;2024-03-08T11:44:44;26.40;;;13.93;;
55641;SDS011;41509;53.108;6.100;2024-03-08T11:47:11;26.80;;;14.65;;
55641;SDS011;41509;53.108;6.100;2024-03-08T11:49:37;26.55;;;14.68;;
55641;SDS011;41509;53.108;6.100;2024-03-08T11:52:04;27.65;;;14.40;;
55641;SDS011;41509;53.108;6.100;2024-03-08T11:54:30;22.83;;;12.98;;
55641;SDS011;41509;53.108;6.100;2024-03-08T11:56:56;25.20;;;13.60;;
55641;SDS011;41509;53.108;6.100;2024-03-08T11:59:27;26.90;;;14.20;;
55641;SDS011;41509;53.108;6.100;2024-03-08T12:02:00;25.08;;;14.40;;
55641;SDS011;41509;53.108;6.100;2024-03-08T12:04:29;28.38;;;14.57;;
55641;SDS011;41509;53.108;6.100;2024-03-08T12:06:56;26.52;;;14.70;;
55641;SDS011;41509;53.108;6.100;2024-03-08T12:09:24;23.15;;;13.38;;
55641;SDS011;41509;53.108;6.100;2024-03-08T12:11:50;24.90;;;13.70;;
55641;SDS011;41509;53.108;6.100;2024-03-08T12:14:16;25.67;;;15.00;;
55641;SDS011;41509;53.108;6.100;2024-03-08T12:16:43;24.50;;;14.05;;
55641;SDS011;41509;53.108;6.100;2024-03-08T12:19:09;28.85;;;15.10;;
55641;SDS011;41509;53.108;6.100;2024-03-08T12:21:35;25.77;;;14.38;;
55641;SDS011;41509;53.108;6.100;2024-03-08T12:24:05;26.48;;;13.40;;
55641;SDS011;41509;53.108;6.100;2024-03-08T12:26:35;23.88;;;13.38;;
55641;SDS011;41509;53.108;6.100;2024-03-08T12:29:14;26.05;;;13.73;;
55641;SDS011;41509;53.108;6.100;2024-03-08T12:34:23;24.85;;;12.55;;
55641;SDS011;41509;53.108;6.100;2024-03-08T12:36:50;26.85;;;14.40;;
55641;SDS011;41509;53.108;6.100;2024-03-08T12:39:19;26.10;;;14.55;;
55641;SDS011;41509;53.108;6.100;2024-03-08T12:41:52;25.30;;;14.48;;
55641;SDS011;41509;53.108;6.100;2024-03-08T12:46:46;28.00;;;14.00;;
55641;SDS011;41509;53.108;6.100;2024-03-08T12:49:13;28.95;;;14.15;;
55641;SDS011;41509;53.108;6.100;2024-03-08T12:51:42;25.10;;;14.13;;
55641;SDS011;41509;53.108;6.100;2024-03-08T12:54:08;27.38;;;14.25;;
55641;SDS011;41509;53.108;6.100;2024-03-08T12:56:34;23.77;;;13.03;;
55641;SDS011;41509;53.108;6.100;2024-03-08T12:59:02;23.92;;;13.18;;
55641;SDS011;41509;53.108;6.100;2024-03-08T13:01:30;24.58;;;14.27;;
55641;SDS011;41509;53.108;6.100;2024-03-08T13:03:57;24.38;;;13.65;;
55641;SDS011;41509;53.108;6.100;2024-03-08T13:06:31;24.27;;;13.65;;
55641;SDS011;41509;53.108;6.100;2024-03-08T13:08:57;23.47;;;13.43;;
55641;SDS011;41509;53.108;6.100;2024-03-08T13:11:30;23.23;;;13.73;;
55641;SDS011;41509;53.108;6.100;2024-03-08T13:14:01;25.10;;;12.68;;
55641;SDS011;41509;53.108;6.100;2024-03-08T13:16:28;22.92;;;13.02;;
55641;SDS011;41509;53.108;6.100;2024-03-08T13:18:54;28.90;;;13.43;;
55641;SDS011;41509;53.108;6.100;2024-03-08T13:21:22;24.75;;;13.80;;
55641;SDS011;41509;53.108;6.100;2024-03-08T13:23:51;21.48;;;12.38;;
55641;SDS011;41509;53.108;6.100;2024-03-08T13:26:18;25.73;;;15.05;;
55641;SDS011;41509;53.108;6.100;2024-03-08T13:28:49;24.80;;;13.45;;
55641;SDS011;41509;53.108;6.100;2024-03-08T13:31:18;24.73;;;13.82;;
55641;SDS011;41509;53.108;6.100;2024-03-08T13:33:44;23.13;;;13.68;;
55641;SDS011;41509;53.108;6.100;2024-03-08T13:36:12;22.73;;;13.68;;
55641;SDS011;41509;53.108;6.100;2024-03-08T13:38:45;26.63;;;15.15;;
55641;SDS011;41509;53.108;6.100;2024-03-08T13:41:12;24.45;;;12.60;;
55641;SDS011;41509;53.108;6.100;2024-03-08T13:43:45;22.77;;;13.20;;
55641;SDS011;41509;53.108;6.100;2024-03-08T13:46:14;29.60;;;14.38;;
55641;SDS011;41509;53.108;6.100;2024-03-08T13:48:40;24.55;;;12.88;;
55641;SDS011;41509;53.108;6.100;2024-03-08T13:51:06;23.63;;;12.80;;
55641;SDS011;41509;53.108;6.100;2024-03-08T13:53:33;27.48;;;13.75;;
55641;SDS011;41509;53.108;6.100;2024-03-08T13:56:02;20.50;;;12.00;;
55641;SDS011;41509;53.108;6.100;2024-03-08T14:00:54;21.70;;;11.88;;
55641;SDS011;41509;53.108;6.100;2024-03-08T14:03:20;19.48;;;10.65;;
55641;SDS011;41509;53.108;6.100;2024-03-08T14:05:46;22.65;;;12.50;;
55641;SDS011;41509;53.108;6.100;2024-03-08T14:08:12;18.47;;;11.17;;
55641;SDS011;41509;53.108;6.100;2024-03-08T14:10:38;23.43;;;12.53;;
55641;SDS011;41509;53.108;6.100;2024-03-08T14:13:04;22.08;;;12.32;;
55641;SDS011;41509;53.108;6.100;2024-03-08T14:15:30;21.30;;;11.77;;
55641;SDS011;41509;53.108;6.100;2024-03-08T14:17:56;22.08;;;12.23;;
55641;SDS011;41509;53.108;6.100;2024-03-08T14:20:23;20.85;;;11.93;;
55641;SDS011;41509;53.108;6.100;2024-03-08T14:22:53;20.90;;;12.07;;
55641;SDS011;41509;53.108;6.100;2024-03-08T14:25:20;22.20;;;12.27;;
55641;SDS011;41509;53.108;6.100;2024-03-08T14:27:48;21.17;;;11.75;;
55641;SDS011;41509;53.108;6.100;2024-03-08T14:30:23;20.90;;;11.93;;
55641;SDS011;41509;53.108;6.100;2024-03-08T14:33:03;21.65;;;11.82;;
55641;SDS011;41509;53.108;6.100;2024-03-08T14:35:34;20.08;;;11.75;;
55641;SDS011;41509;53.108;6.100;2024-03-08T14:38:01;21.38;;;12.63;;
55641;SDS011;41509;53.108;6.100;2024-03-08T14:40:27;20.00;;;11.65;;
55641;SDS011;41509;53.108;6.100;2024-03-08T14:42:53;21.15;;;12.05;;
55641;SDS011;41509;53.108;6.100;2024-03-08T14:45:19;23.00;;;12.87;;
55641;SDS011;41509;53.108;6.100;2024-03-08T14:47:48;19.95;;;11.52;;
55641;SDS011;41509;53.108;6.100;2024-03-08T14:50:14;19.85;;;11.57;;
55641;SDS011;41509;53.108;6.100;2024-03-08T14:52:44;20.80;;;10.63;;
55641;SDS011;41509;53.108;6.100;2024-03-08T14:55:10;22.75;;;12.05;;
55641;SDS011;41509;53.108;6.100;2024-03-08T14:57:40;21.83;;;11.88;;
55641;SDS011;41509;53.108;6.100;2024-03-08T15:00:06;22.05;;;11.65;;
55641;SDS011;41509;53.108;6.100;2024-03-08T15:02:40;20.48;;;11.57;;
55641;SDS011;41509;53.108;6.100;2024-03-08T15:07:36;21.30;;;10.43;;
55641;SDS011;41509;53.108;6.100;2024-03-08T15:10:04;19.38;;;11.30;;